createdAt,value
2023-04-09T00:01:15.137Z,3.79
2023-04-09T00:04:25.280Z,3.78
2023-04-09T00:07:31.184Z,3.83
2023-04-09T00:10:38.033Z,3.83
2023-04-09T00:13:43.915Z,3.87
2023-04-09T00:16:50.811Z,3.94
2023-04-09T00:19:59.292Z,3.86
2023-04-09T00:23:06.468Z,3.90
2023-04-09T00:26:13.072Z,3.92
2023-04-09T00:29:20.025Z,3.92
2023-04-09T00:32:25.985Z,3.97
2023-04-09T00:35:35.410Z,3.90
2023-04-09T00:38:41.375Z,3.91
2023-04-09T00:41:48.491Z,3.87
2023-04-09T00:44:55.954Z,3.84
2023-04-09T00:48:03.286Z,3.79
2023-04-09T00:51:12.241Z,3.71
2023-04-09T00:54:19.611Z,3.66
2023-04-09T00:57:29.088Z,3.62
2023-04-09T01:00:36.096Z,3.55
2023-04-09T01:03:42.759Z,3.49
2023-04-09T01:06:58.924Z,3.44
2023-04-09T01:10:24.784Z,3.39
2023-04-09T01:13:42.922Z,3.36
2023-04-09T01:16:58.753Z,3.38
2023-04-09T01:20:14.636Z,3.37
2023-04-09T01:23:48.060Z,3.52
2023-04-09T01:27:11.630Z,3.59
2023-04-09T01:30:32.673Z,3.57
2023-04-09T01:33:42.834Z,3.52
2023-04-09T01:36:59.331Z,3.51
2023-04-09T01:40:08.053Z,3.57
2023-04-09T01:43:18.242Z,3.57
2023-04-09T01:46:29.185Z,3.58
2023-04-09T01:49:37.250Z,3.63
2023-04-09T01:52:46.139Z,3.66
2023-04-09T01:55:56.448Z,3.69
2023-04-09T01:59:02.413Z,3.69
2023-04-09T02:02:22.275Z,3.60
2023-04-09T02:05:36.595Z,3.55
2023-04-09T02:08:50.785Z,3.52
2023-04-09T02:12:01.363Z,3.50
2023-04-09T02:15:12.667Z,3.25
2023-04-09T02:18:33.089Z,3.37
2023-04-09T02:21:40.132Z,3.35
2023-04-09T02:24:46.076Z,3.34
2023-04-09T02:27:52.959Z,3.37
2023-04-09T02:31:10.080Z,3.47
2023-04-09T02:34:22.109Z,3.47
2023-04-09T02:37:28.102Z,3.46
2023-04-09T02:40:35.005Z,3.45
2023-04-09T02:43:41.202Z,3.43
2023-04-09T02:46:50.212Z,3.39
2023-04-09T02:49:58.772Z,3.38
2023-04-09T02:53:09.278Z,3.26
2023-04-09T02:56:15.275Z,3.26
2023-04-09T02:59:22.145Z,3.25
2023-04-09T03:02:28.633Z,3.24
2023-04-09T03:05:42.013Z,3.21
2023-04-09T03:08:50.695Z,3.24
2023-04-09T03:11:57.746Z,3.24
2023-04-09T03:15:04.960Z,3.32
2023-04-09T03:18:11.697Z,3.31
2023-04-09T03:21:20.232Z,3.29
2023-04-09T03:24:29.803Z,3.33
2023-04-09T03:27:40.005Z,3.34
2023-04-09T03:30:47.268Z,3.43
2023-04-09T03:33:54.191Z,3.46
2023-04-09T03:37:03.661Z,3.42
2023-04-09T03:40:12.953Z,3.39
2023-04-09T03:43:22.025Z,3.35
2023-04-09T03:46:31.196Z,3.29
2023-04-09T03:49:39.998Z,3.24
2023-04-09T03:52:57.593Z,3.31
2023-04-09T03:56:04.717Z,3.28
2023-04-09T03:59:11.594Z,3.29
2023-04-09T04:02:23.209Z,3.37
2023-04-09T04:05:37.870Z,3.33
2023-04-09T04:08:51.250Z,3.27
2023-04-09T04:12:01.218Z,3.31
2023-04-09T04:15:33.645Z,3.34
2023-04-09T04:18:41.948Z,3.40
2023-04-09T04:21:48.970Z,3.37
2023-04-09T04:24:58.196Z,3.34
2023-04-09T04:28:05.743Z,3.35
2023-04-09T04:31:18.026Z,3.33
2023-04-09T04:34:26.760Z,3.39
2023-04-09T04:37:41.034Z,3.48
2023-04-09T04:40:50.442Z,3.55
2023-04-09T04:43:57.630Z,3.64
2023-04-09T04:47:05.674Z,3.72
2023-04-09T04:50:13.606Z,3.76
2023-04-09T04:53:32.776Z,3.89
2023-04-09T04:56:48.282Z,3.86
2023-04-09T05:00:12.394Z,3.91
2023-04-09T05:03:20.108Z,3.98
2023-04-09T05:06:50.147Z,4.05
2023-04-09T05:09:59.970Z,4.22
2023-04-09T05:13:20.839Z,4.31
2023-04-09T05:16:27.447Z,4.37
2023-04-09T05:19:42.355Z,3.91
2023-04-09T05:22:50.048Z,3.47
2023-04-09T05:25:57.055Z,3.31
2023-04-09T05:29:14.983Z,3.33
2023-04-09T05:32:22.627Z,3.20
2023-04-09T05:35:29.244Z,3.35
2023-04-09T05:38:36.889Z,3.46
2023-04-09T05:41:44.971Z,3.37
2023-04-09T05:45:09.575Z,3.35
2023-04-09T05:48:18.861Z,3.46
2023-04-09T05:51:29.518Z,3.57
2023-04-09T05:54:36.841Z,3.65
2023-04-09T05:57:47.825Z,3.53
2023-04-09T06:00:56.511Z,3.32
2023-04-09T06:04:03.728Z,3.35
2023-04-09T06:07:10.146Z,3.67
2023-04-09T06:10:17.044Z,3.97
2023-04-09T06:13:23.382Z,4.13
2023-04-09T06:16:35.259Z,4.31
2023-04-09T06:19:41.472Z,4.21
2023-04-09T06:22:48.562Z,4.27
2023-04-09T06:25:54.582Z,4.47
2023-04-09T06:29:01.622Z,4.75
2023-04-09T06:32:10.307Z,4.93
2023-04-09T06:35:17.054Z,5.08
2023-04-09T06:38:23.365Z,5.27
2023-04-09T06:41:31.098Z,5.45
2023-04-09T06:44:38.001Z,5.63
2023-04-09T06:47:47.818Z,5.74
2023-04-09T06:50:53.850Z,5.80
2023-04-09T06:54:00.765Z,5.86
2023-04-09T06:57:07.030Z,5.89
2023-04-09T07:00:16.852Z,6.20
2023-04-09T07:03:26.263Z,6.37
2023-04-09T07:06:33.367Z,6.35
2023-04-09T07:09:39.374Z,6.64
2023-04-09T07:12:46.388Z,6.70
2023-04-09T07:15:52.433Z,6.82
2023-04-09T07:19:01.845Z,6.40
2023-04-09T07:22:07.876Z,6.46
2023-04-09T07:25:14.753Z,6.36
2023-04-09T07:28:20.923Z,6.28
2023-04-09T07:31:27.836Z,6.25
2023-04-09T07:34:37.881Z,6.20
2023-04-09T07:37:44.838Z,6.29
2023-04-09T07:40:51.009Z,6.38
2023-04-09T07:43:58.035Z,6.29
2023-04-09T07:47:04.165Z,6.20
2023-04-09T07:50:15.027Z,6.41
2023-04-09T07:53:21.171Z,6.45
2023-04-09T07:56:28.021Z,6.24
2023-04-09T07:59:34.562Z,6.04
2023-04-09T08:02:41.814Z,5.78
2023-04-09T08:05:50.882Z,5.94
2023-04-09T08:08:57.854Z,5.90
2023-04-09T08:12:04.087Z,5.79
2023-04-09T08:15:12.208Z,5.78
2023-04-09T08:18:18.442Z,5.60
2023-04-09T08:21:28.057Z,5.67
2023-04-09T08:24:34.814Z,5.83
2023-04-09T08:27:41.770Z,5.83
2023-04-09T08:30:48.034Z,5.77
2023-04-09T08:33:55.034Z,6.15
2023-04-09T08:37:03.647Z,6.42
2023-04-09T08:40:12.624Z,6.49
2023-04-09T08:43:21.396Z,6.73
2023-04-09T08:46:32.235Z,7.03
2023-04-09T08:49:38.519Z,7.14
2023-04-09T08:52:51.463Z,7.26
2023-04-09T08:55:57.458Z,7.35
2023-04-09T08:59:04.337Z,7.53
2023-04-09T09:02:12.489Z,7.54
2023-04-09T09:05:20.554Z,7.35
2023-04-09T09:08:31.046Z,7.34
2023-04-09T09:11:39.793Z,7.20
2023-04-09T09:14:52.107Z,7.44
2023-04-09T09:18:02.090Z,7.71
2023-04-09T09:21:14.913Z,7.56
2023-04-09T09:24:24.452Z,7.75
2023-04-09T09:27:40.803Z,8.12
2023-04-09T09:30:49.886Z,7.98
2023-04-09T09:33:57.178Z,7.73
2023-04-09T09:37:04.071Z,7.53
2023-04-09T09:40:30.245Z,7.57
2023-04-09T09:43:44.809Z,7.33
2023-04-09T09:46:54.474Z,7.75
2023-04-09T09:50:01.263Z,7.83
2023-04-09T09:53:10.982Z,7.70
2023-04-09T09:56:32.767Z,7.66
2023-04-09T09:59:51.169Z,7.81
2023-04-09T10:03:05.354Z,7.89
2023-04-09T10:06:19.118Z,8.07
2023-04-09T10:09:31.618Z,8.49
2023-04-09T10:12:47.589Z,8.69
2023-04-09T10:15:55.569Z,8.65
2023-04-09T10:19:04.963Z,8.62
2023-04-09T10:22:19.689Z,8.53
2023-04-09T10:25:26.688Z,8.75
2023-04-09T10:28:36.939Z,9.14
2023-04-09T10:31:59.154Z,9.60
2023-04-09T10:35:08.527Z,9.81
2023-04-09T10:38:14.772Z,9.41
2023-04-09T10:41:31.818Z,9.12
2023-04-09T10:44:44.894Z,9.28
2023-04-09T10:47:54.512Z,9.72
2023-04-09T10:51:01.012Z,10.10
2023-04-09T10:54:08.928Z,10.04
2023-04-09T10:57:22.007Z,10.45
2023-04-09T11:00:43.116Z,11.15
2023-04-09T11:04:26.088Z,11.58
2023-04-09T11:07:38.341Z,10.94
2023-04-09T11:10:50.492Z,11.13
2023-04-09T11:14:04.828Z,10.40
2023-04-09T11:17:23.602Z,11.30
2023-04-09T11:20:35.534Z,11.80
2023-04-09T11:23:42.848Z,11.93
2023-04-09T11:26:51.714Z,12.20
2023-04-09T11:30:01.202Z,12.38
2023-04-09T11:33:10.935Z,12.61
2023-04-09T11:36:18.165Z,11.96
2023-04-09T11:39:27.158Z,11.89
2023-04-09T11:42:42.180Z,12.12
2023-04-09T11:45:53.081Z,12.52
2023-04-09T11:49:02.557Z,12.61
2023-04-09T11:52:10.925Z,12.87
2023-04-09T11:55:28.156Z,12.97
2023-04-09T11:58:35.146Z,13.32
2023-04-09T12:01:41.469Z,13.35
2023-04-09T12:04:55.840Z,12.42
2023-04-09T12:08:05.251Z,12.82
2023-04-09T12:11:15.825Z,12.53
2023-04-09T12:14:25.299Z,12.23
2023-04-09T12:17:32.929Z,11.97
2023-04-09T12:20:46.768Z,11.83
2023-04-09T12:23:53.920Z,11.56
2023-04-09T12:27:00.327Z,11.53
2023-04-09T12:30:12.238Z,11.46
2023-04-09T12:33:18.232Z,11.17
2023-04-09T12:36:27.979Z,11.25
2023-04-09T12:39:34.476Z,10.99
2023-04-09T12:42:43.852Z,11.10
2023-04-09T12:45:49.948Z,10.90
2023-04-09T12:48:57.011Z,10.39
2023-04-09T12:52:05.804Z,10.47
2023-04-09T12:55:14.738Z,10.78
2023-04-09T12:58:20.849Z,10.46
2023-04-09T13:01:27.675Z,10.94
2023-04-09T13:04:34.299Z,11.00
2023-04-09T13:07:47.104Z,10.74
2023-04-09T13:10:53.095Z,10.71
2023-04-09T13:13:59.946Z,10.88
2023-04-09T13:17:06.193Z,10.54
2023-04-09T13:20:13.837Z,10.46
2023-04-09T13:23:22.450Z,10.21
2023-04-09T13:26:29.375Z,10.17
2023-04-09T13:29:35.632Z,10.35
2023-04-09T13:32:42.825Z,10.43
2023-04-09T13:35:49.239Z,10.44
2023-04-09T13:39:04.631Z,10.52
2023-04-09T13:42:14.062Z,10.37
2023-04-09T13:45:24.138Z,10.02
2023-04-09T13:48:30.239Z,10.40
2023-04-09T13:51:37.888Z,10.47
2023-04-09T13:54:46.839Z,10.67
2023-04-09T13:57:57.096Z,10.72
2023-04-09T14:01:09.479Z,10.98
2023-04-09T14:04:17.060Z,11.04
2023-04-09T14:07:23.153Z,10.68
2023-04-09T14:10:33.055Z,10.96
2023-04-09T14:13:39.154Z,10.82
2023-04-09T14:16:46.063Z,10.51
2023-04-09T14:19:52.475Z,10.58
2023-04-09T14:23:02.035Z,10.30
2023-04-09T14:26:11.170Z,10.29
2023-04-09T14:29:18.359Z,10.18
2023-04-09T14:32:24.658Z,10.00
2023-04-09T14:35:37.940Z,9.92
2023-04-09T14:38:44.309Z,10.01
2023-04-09T14:41:54.866Z,9.87
2023-04-09T14:45:05.264Z,9.82
2023-04-09T14:48:12.863Z,9.59
2023-04-09T14:51:19.455Z,9.50
2023-04-09T14:54:26.530Z,9.66
2023-04-09T14:57:35.113Z,9.69
2023-04-09T15:00:44.428Z,9.45
2023-04-09T15:03:51.412Z,9.39
2023-04-09T15:07:00.297Z,9.31
2023-04-09T15:10:08.349Z,9.42
2023-04-09T15:13:18.632Z,9.55
2023-04-09T15:16:27.613Z,9.60
2023-04-09T15:19:34.963Z,9.22
2023-04-09T15:22:41.318Z,9.26
2023-04-09T15:25:48.395Z,9.40
2023-04-09T15:29:06.859Z,9.16
2023-04-09T15:32:14.745Z,9.20
2023-04-09T15:35:25.371Z,8.82
2023-04-09T15:38:32.877Z,8.97
2023-04-09T15:41:39.015Z,9.01
2023-04-09T15:44:48.626Z,9.00
2023-04-09T15:47:54.920Z,8.67
2023-04-09T15:51:02.027Z,8.46
2023-04-09T15:54:08.400Z,8.46
2023-04-09T15:57:15.677Z,8.32
2023-04-09T16:00:25.326Z,8.54
2023-04-09T16:03:37.377Z,8.67
2023-04-09T16:06:43.826Z,8.82
2023-04-09T16:09:50.800Z,8.50
2023-04-09T16:12:57.207Z,8.37
2023-04-09T16:16:07.786Z,8.20
2023-04-09T16:19:14.258Z,7.95
2023-04-09T16:22:21.086Z,8.15
2023-04-09T16:25:27.627Z,8.20
2023-04-09T16:28:36.622Z,8.23
2023-04-09T16:31:47.410Z,8.10
2023-04-09T16:34:56.552Z,8.09
2023-04-09T16:38:02.915Z,7.93
2023-04-09T16:41:12.326Z,7.96
2023-04-09T16:44:21.679Z,7.84
2023-04-09T16:47:31.750Z,7.70
2023-04-09T16:50:37.895Z,7.62
2023-04-09T16:53:45.001Z,7.57
2023-04-09T16:56:51.681Z,7.39
2023-04-09T17:00:00.369Z,7.16
2023-04-09T17:03:29.454Z,7.21
2023-04-09T17:06:36.448Z,7.15
2023-04-09T17:09:42.784Z,7.26
2023-04-09T17:12:50.919Z,7.19
2023-04-09T17:15:57.202Z,6.97
2023-04-09T17:19:06.800Z,6.92
2023-04-09T17:22:18.274Z,6.69
2023-04-09T17:25:27.805Z,6.57
2023-04-09T17:28:35.597Z,6.42
2023-04-09T17:31:42.764Z,6.44
2023-04-09T17:34:54.545Z,6.48
2023-04-09T17:38:01.753Z,6.35
2023-04-09T17:41:09.339Z,6.27
2023-04-09T17:44:16.218Z,6.15
2023-04-09T17:47:22.666Z,6.19
2023-04-09T17:50:32.251Z,6.30
2023-04-09T17:53:42.248Z,6.31
2023-04-09T17:56:49.278Z,6.24
2023-04-09T17:59:55.443Z,6.16
2023-04-09T18:03:02.647Z,6.07
2023-04-09T18:06:12.030Z,5.90
2023-04-09T18:09:19.050Z,5.74
2023-04-09T18:12:25.151Z,5.75
2023-04-09T18:15:33.974Z,5.68
2023-04-09T18:18:40.886Z,5.62
2023-04-09T18:21:50.316Z,5.61
2023-04-09T18:24:56.900Z,5.65
2023-04-09T18:28:03.829Z,5.69
2023-04-09T18:31:16.126Z,5.60
2023-04-09T18:34:22.936Z,5.44
2023-04-09T18:37:34.449Z,5.32
2023-04-09T18:40:48.254Z,5.32
2023-04-09T18:43:56.745Z,5.33
2023-04-09T18:47:05.331Z,5.25
2023-04-09T18:50:15.434Z,5.27
2023-04-09T18:53:25.407Z,5.23
2023-04-09T18:56:35.166Z,5.14
2023-04-09T18:59:47.494Z,5.13
2023-04-09T19:02:53.975Z,5.13
2023-04-09T19:06:00.993Z,5.05
2023-04-09T19:09:10.357Z,5.03
2023-04-09T19:12:17.622Z,5.01
2023-04-09T19:15:26.377Z,4.97
2023-04-09T19:18:34.549Z,4.92
2023-04-09T19:21:41.504Z,4.92
2023-04-09T19:24:51.354Z,4.82
2023-04-09T19:27:57.644Z,4.79
2023-04-09T19:31:10.256Z,4.81
2023-04-09T19:34:16.694Z,4.72
2023-04-09T19:37:27.724Z,4.76
2023-04-09T19:40:36.580Z,4.68
2023-04-09T19:43:44.530Z,4.65
2023-04-09T19:46:53.287Z,4.66
2023-04-09T19:50:00.188Z,4.53
2023-04-09T19:53:26.550Z,4.48
2023-04-09T19:56:38.370Z,4.46
2023-04-09T19:59:44.555Z,4.41
2023-04-09T20:02:58.484Z,4.37
2023-04-09T20:06:10.330Z,4.31
2023-04-09T20:09:18.437Z,4.29
2023-04-09T20:12:29.788Z,4.35
2023-04-09T20:15:36.780Z,4.32
2023-04-09T20:18:42.859Z,4.37
2023-04-09T20:21:49.640Z,4.45
2023-04-09T20:24:56.869Z,4.43
2023-04-09T20:28:14.123Z,4.38
2023-04-09T20:31:20.425Z,4.36
2023-04-09T20:34:30.544Z,4.37
2023-04-09T20:37:36.469Z,4.41
2023-04-09T20:40:43.403Z,4.46
2023-04-09T20:43:54.071Z,4.45
2023-04-09T20:47:00.940Z,4.49
2023-04-09T20:50:11.026Z,4.50
2023-04-09T20:53:24.629Z,4.46
2023-04-09T20:56:30.697Z,4.44
2023-04-09T20:59:40.232Z,4.41
2023-04-09T21:02:46.986Z,4.40
2023-04-09T21:05:55.945Z,4.46
2023-04-09T21:09:02.073Z,4.48
2023-04-09T21:12:10.644Z,4.55
2023-04-09T21:15:19.560Z,4.60
2023-04-09T21:18:26.397Z,4.62
2023-04-09T21:21:34.239Z,4.71
2023-04-09T21:24:41.164Z,4.68
2023-04-09T21:27:47.083Z,4.65
2023-04-09T21:31:00.013Z,4.68
2023-04-09T21:34:24.306Z,4.71
2023-04-09T21:37:33.306Z,4.78
2023-04-09T21:40:39.519Z,4.79
2023-04-09T21:43:46.323Z,4.79
2023-04-09T21:46:55.094Z,4.68
2023-04-09T21:50:08.403Z,4.65
2023-04-09T21:53:27.447Z,4.67
2023-04-09T21:56:35.093Z,4.59
2023-04-09T21:59:41.649Z,4.62
2023-04-09T22:02:51.392Z,4.66
2023-04-09T22:05:57.480Z,4.62
2023-04-09T22:09:04.920Z,4.58
2023-04-09T22:12:11.174Z,4.55
2023-04-09T22:15:19.474Z,4.56
2023-04-09T22:18:29.063Z,4.56
2023-04-09T22:21:36.018Z,4.50
2023-04-09T22:24:42.143Z,4.47
2023-04-09T22:27:54.667Z,4.45
2023-04-09T22:31:01.733Z,4.41
2023-04-09T22:34:21.476Z,4.44
2023-04-09T22:37:32.887Z,4.39
2023-04-09T22:40:46.221Z,4.41
2023-04-09T22:43:52.781Z,4.39
2023-04-09T22:46:59.776Z,4.35
2023-04-09T22:50:11.501Z,4.37
2023-04-09T22:53:19.970Z,4.39
2023-04-09T22:56:26.251Z,4.37
2023-04-09T22:59:40.132Z,4.50
2023-04-09T23:02:47.834Z,4.40
2023-04-09T23:05:57.522Z,4.45
2023-04-09T23:09:03.519Z,4.48
2023-04-09T23:12:10.385Z,4.36
2023-04-09T23:15:16.348Z,4.35
2023-04-09T23:18:23.296Z,4.38
2023-04-09T23:21:32.035Z,4.42
2023-04-09T23:24:38.892Z,4.39
2023-04-09T23:27:45.189Z,4.42
2023-04-09T23:30:52.185Z,4.42
2023-04-09T23:33:58.157Z,4.41
2023-04-09T23:37:20.453Z,4.42
2023-04-09T23:40:26.923Z,4.44
2023-04-09T23:43:37.753Z,4.35
2023-04-09T23:46:43.821Z,4.26
2023-04-09T23:49:50.535Z,4.20
2023-04-09T23:53:01.302Z,4.30
2023-04-09T23:56:14.087Z,4.48
2023-04-09T23:59:20.094Z,4.57
